sensor_id;sensor_type;location;lat;lon;timestamp;temperature;humidity
6281;DHT22;3173;48.204;11.612;2023-07-13T18:54:46;22.40;97.70
6281;DHT22;3173;48.204;11.612;2023-07-13T18:57:12;22.30;97.80
6281;DHT22;3173;48.204;11.612;2023-07-13T18:59:38;22.10;98.00
6281;DHT22;3173;48.204;11.612;2023-07-13T19:02:11;22.10;98.20
6281;DHT22;3173;48.204;11.612;2023-07-13T19:04:38;22.10;98.50
6281;DHT22;3173;48.204;11.612;2023-07-13T19:07:07;22.10;98.70
6281;DHT22;3173;48.204;11.612;2023-07-13T19:09:33;22.00;98.80
6281;DHT22;3173;48.204;11.612;2023-07-13T19:11:59;22.00;99.10
6281;DHT22;3173;48.204;11.612;2023-07-13T19:14:24;22.00;99.30
6281;DHT22;3173;48.204;11.612;2023-07-13T19:16:51;22.00;99.50
6281;DHT22;3173;48.204;11.612;2023-07-13T19:19:18;21.90;99.50
6281;DHT22;3173;48.204;11.612;2023-07-13T19:21:47;21.80;99.50
6281;DHT22;3173;48.204;11.612;2023-07-13T19:24:19;21.80;99.60
6281;DHT22;3173;48.204;11.612;2023-07-13T19:26:46;21.60;99.80
6281;DHT22;3173;48.204;11.612;2023-07-13T19:29:17;21.80;99.90
6281;DHT22;3173;48.204;11.612;2023-07-13T19:31:43;21.80;99.90
6281;DHT22;3173;48.204;11.612;2023-07-13T19:36:39;21.70;99.90
6281;DHT22;3173;48.204;11.612;2023-07-13T19:39:24;21.60;99.90
6281;DHT22;3173;48.204;11.612;2023-07-13T19:41:50;21.60;99.90
6281;DHT22;3173;48.204;11.612;2023-07-13T19:44:16;21.60;99.90
6281;DHT22;3173;48.204;11.612;2023-07-13T19:46:43;21.50;99.90
6281;DHT22;3173;48.204;11.612;2023-07-13T19:49:09;21.60;99.90
6281;DHT22;3173;48.204;11.612;2023-07-13T19:51:35;21.60;99.90
6281;DHT22;3173;48.204;11.612;2023-07-13T19:54:19;21.50;99.90
6281;DHT22;3173;48.204;11.612;2023-07-13T19:56:45;21.40;99.90
6281;DHT22;3173;48.204;11.612;2023-07-13T19:59:30;21.40;99.90
6281;DHT22;3173;48.204;11.612;2023-07-13T20:01:57;21.30;99.90
6281;DHT22;3173;48.204;11.612;2023-07-13T20:04:27;21.30;99.90
6281;DHT22;3173;48.204;11.612;2023-07-13T20:06:53;21.30;99.90
6281;DHT22;3173;48.204;11.612;2023-07-13T20:09:24;21.30;99.90
6281;DHT22;3173;48.204;11.612;2023-07-13T20:11:51;21.20;99.90
6281;DHT22;3173;48.204;11.612;2023-07-13T20:14:22;21.10;99.90
6281;DHT22;3173;48.204;11.612;2023-07-13T20:16:49;21.20;99.90
6281;DHT22;3173;48.204;11.612;2023-07-13T20:19:16;21.10;99.90
6281;DHT22;3173;48.204;11.612;2023-07-13T20:21:44;21.00;99.90
6281;DHT22;3173;48.204;11.612;2023-07-13T20:24:13;21.00;99.90
6281;DHT22;3173;48.204;11.612;2023-07-13T20:26:41;21.10;99.90
6281;DHT22;3173;48.204;11.612;2023-07-13T20:29:07;20.90;99.90
6281;DHT22;3173;48.204;11.612;2023-07-13T20:31:34;20.90;99.90
6281;DHT22;3173;48.204;11.612;2023-07-13T20:34:03;20.80;99.90
6281;DHT22;3173;48.204;11.612;2023-07-13T20:36:29;20.60;99.90
6281;DHT22;3173;48.204;11.612;2023-07-13T20:38:55;20.50;99.90
6281;DHT22;3173;48.204;11.612;2023-07-13T20:41:21;20.40;99.90
6281;DHT22;3173;48.204;11.612;2023-07-13T20:43:47;20.50;99.90
6281;DHT22;3173;48.204;11.612;2023-07-13T20:46:16;20.40;99.90
6281;DHT22;3173;48.204;11.612;2023-07-13T20:48:47;20.40;99.90
6281;DHT22;3173;48.204;11.612;2023-07-13T20:51:15;20.30;99.90
6281;DHT22;3173;48.204;11.612;2023-07-13T20:53:44;20.40;99.90
6281;DHT22;3173;48.204;11.612;2023-07-13T20:56:16;20.20;99.90
6281;DHT22;3173;48.204;11.612;2023-07-13T20:58:42;20.20;99.90
6281;DHT22;3173;48.204;11.612;2023-07-13T21:01:35;20.20;99.90
6281;DHT22;3173;48.204;11.612;2023-07-13T21:04:10;20.20;99.90
6281;DHT22;3173;48.204;11.612;2023-07-13T21:06:36;20.20;99.90
6281;DHT22;3173;48.204;11.612;2023-07-13T21:09:14;20.20;99.90
6281;DHT22;3173;48.204;11.612;2023-07-13T21:11:41;20.20;99.90
6281;DHT22;3173;48.204;11.612;2023-07-13T21:14:07;20.20;99.90
6281;DHT22;3173;48.204;11.612;2023-07-13T21:16:33;20.20;99.90
6281;DHT22;3173;48.204;11.612;2023-07-13T21:18:59;20.30;99.90
6281;DHT22;3173;48.204;11.612;2023-07-13T21:21:25;20.20;99.90
6281;DHT22;3173;48.204;11.612;2023-07-13T21:23:52;20.30;99.90
6281;DHT22;3173;48.204;11.612;2023-07-13T21:26:19;20.20;99.90
6281;DHT22;3173;48.204;11.612;2023-07-13T21:28:46;20.20;99.90
6281;DHT22;3173;48.204;11.612;2023-07-13T21:33:48;20.00;99.90
6281;DHT22;3173;48.204;11.612;2023-07-13T21:36:14;19.90;99.90
6281;DHT22;3173;48.204;11.612;2023-07-13T21:38:41;19.90;99.90
6281;DHT22;3173;48.204;11.612;2023-07-13T21:41:28;19.70;99.90
6281;DHT22;3173;48.204;11.612;2023-07-13T21:43:55;19.60;99.90
6281;DHT22;3173;48.204;11.612;2023-07-13T21:46:22;19.70;99.90
6281;DHT22;3173;48.204;11.612;2023-07-13T21:48:49;19.70;99.90
6281;DHT22;3173;48.204;11.612;2023-07-13T21:51:21;19.60;99.90
6281;DHT22;3173;48.204;11.612;2023-07-13T21:53:49;19.60;99.90
6281;DHT22;3173;48.204;11.612;2023-07-13T21:56:16;19.50;99.90
6281;DHT22;3173;48.204;11.612;2023-07-13T21:58:44;19.60;99.90
6281;DHT22;3173;48.204;11.612;2023-07-13T22:01:16;19.50;99.90
6281;DHT22;3173;48.204;11.612;2023-07-13T22:03:43;19.50;99.90
6281;DHT22;3173;48.204;11.612;2023-07-13T22:06:20;19.50;99.90
6281;DHT22;3173;48.204;11.612;2023-07-13T22:08:47;19.50;99.90
6281;DHT22;3173;48.204;11.612;2023-07-13T22:11:18;19.40;99.90
6281;DHT22;3173;48.204;11.612;2023-07-13T22:13:45;19.40;99.90
6281;DHT22;3173;48.204;11.612;2023-07-13T22:18:43;19.50;99.90
6281;DHT22;3173;48.204;11.612;2023-07-13T22:21:09;19.50;99.90
6281;DHT22;3173;48.204;11.612;2023-07-13T22:23:37;19.60;99.90
6281;DHT22;3173;48.204;11.612;2023-07-13T22:26:20;19.40;99.90
6281;DHT22;3173;48.204;11.612;2023-07-13T22:28:53;19.40;99.90
6281;DHT22;3173;48.204;11.612;2023-07-13T22:31:20;19.50;99.90
6281;DHT22;3173;48.204;11.612;2023-07-13T22:33:46;19.40;99.90
6281;DHT22;3173;48.204;11.612;2023-07-13T22:36:12;19.40;99.90
6281;DHT22;3173;48.204;11.612;2023-07-13T22:38:39;19.40;99.90
6281;DHT22;3173;48.204;11.612;2023-07-13T22:41:08;19.30;99.90
6281;DHT22;3173;48.204;11.612;2023-07-13T22:43:37;19.20;99.90
6281;DHT22;3173;48.204;11.612;2023-07-13T22:46:03;19.10;99.90
6281;DHT22;3173;48.204;11.612;2023-07-13T22:48:39;19.00;99.90
6281;DHT22;3173;48.204;11.612;2023-07-13T22:51:13;19.00;99.90
6281;DHT22;3173;48.204;11.612;2023-07-13T22:53:40;18.80;99.90
6281;DHT22;3173;48.204;11.612;2023-07-13T22:56:06;18.80;99.90
6281;DHT22;3173;48.204;11.612;2023-07-13T22:58:32;18.90;99.90
6281;DHT22;3173;48.204;11.612;2023-07-13T23:00:59;18.80;99.90
6281;DHT22;3173;48.204;11.612;2023-07-13T23:03:28;18.90;99.90
6281;DHT22;3173;48.204;11.612;2023-07-13T23:05:57;18.90;99.90
6281;DHT22;3173;48.204;11.612;2023-07-13T23:08:27;18.80;99.90
6281;DHT22;3173;48.204;11.612;2023-07-13T23:10:54;18.90;99.90
6281;DHT22;3173;48.204;11.612;2023-07-13T23:13:30;18.90;99.90
6281;DHT22;3173;48.204;11.612;2023-07-13T23:15:57;18.60;99.90
6281;DHT22;3173;48.204;11.612;2023-07-13T23:18:23;18.30;99.90
6281;DHT22;3173;48.204;11.612;2023-07-13T23:20:48;18.40;99.90
6281;DHT22;3173;48.204;11.612;2023-07-13T23:23:16;18.20;99.90
6281;DHT22;3173;48.204;11.612;2023-07-13T23:25:43;17.90;99.90
6281;DHT22;3173;48.204;11.612;2023-07-13T23:28:10;17.80;99.90
6281;DHT22;3173;48.204;11.612;2023-07-13T23:30:38;18.00;99.90
6281;DHT22;3173;48.204;11.612;2023-07-13T23:33:21;18.20;99.90
6281;DHT22;3173;48.204;11.612;2023-07-13T23:35:49;17.90;99.90
6281;DHT22;3173;48.204;11.612;2023-07-13T23:38:18;17.80;99.90
6281;DHT22;3173;48.204;11.612;2023-07-13T23:40:44;17.70;99.90
6281;DHT22;3173;48.204;11.612;2023-07-13T23:43:10;18.10;99.90
6281;DHT22;3173;48.204;11.612;2023-07-13T23:45:35;18.30;99.90
6281;DHT22;3173;48.204;11.612;2023-07-13T23:48:02;18.30;99.90
6281;DHT22;3173;48.204;11.612;2023-07-13T23:50:30;18.10;99.90
6281;DHT22;3173;48.204;11.612;2023-07-13T23:52:58;18.20;99.90
6281;DHT22;3173;48.204;11.612;2023-07-13T23:55:26;18.30;99.90
6281;DHT22;3173;48.204;11.612;2023-07-13T23:57:56;18.30;99.90
